UAL154 PKMJ-PKWA
Flight info
| Callsign | UAL154 |
|---|---|
| Flight time | 0h 43m |
| Altitude | 30000 |
| Route | OREEO |
| Aircraft | B738/M-SDE2E3FGHIRWXY/LB1 |
Departure
| Time | 2026-04-17 14:59 |
|---|---|
| Airport | Marshall Islands International Airport (PKMJ) |
Arrival
| Time | 2026-04-17 15:43 |
|---|---|
| Airport | Bucholz Army Air Field (PKWA) |
| Time | Latitude | Longitude | Altitude | Speed | Heading |
|---|---|---|---|---|---|
| 2026-04-17 14:42 | 7.06844 | 171.28201 | 20 ft | 0 kts | 250° |
| 2026-04-17 14:57 | 7.06840 | 171.28200 | 23 ft | 0 kts | 207° |
| 2026-04-17 14:58 | 7.06837 | 171.28203 | 21 ft | 1 kts | 158° |
| 2026-04-17 14:58 | 7.06823 | 171.28214 | 18 ft | 5 kts | 145° |
| 2026-04-17 14:58 | 7.06780 | 171.28237 | 18 ft | 8 kts | 170° |
| 2026-04-17 14:58 | 7.06758 | 171.28228 | 18 ft | 3 kts | 232° |
| 2026-04-17 14:59 | 7.06735 | 171.28149 | 18 ft | 41 kts | 255° |
| 2026-04-17 14:59 | 7.06654 | 171.27827 | 16 ft | 101 kts | 257° |
| 2026-04-17 14:59 | 7.06319 | 171.26437 | 54 ft | 198 kts | 256° |
| 2026-04-17 14:59 | 7.05946 | 171.25012 | 779 ft | 217 kts | 258° |
| 2026-04-17 15:00 | 7.05666 | 171.23485 | 1626 ft | 230 kts | 270° |
| 2026-04-17 15:00 | 7.05803 | 171.22393 | 1800 ft | 246 kts | 290° |
| 2026-04-17 15:00 | 7.06890 | 171.20300 | 2287 ft | 258 kts | 306° |
| 2026-04-17 15:00 | 7.07992 | 171.18860 | 2845 ft | 267 kts | 313° |
| 2026-04-17 15:01 | 7.08800 | 171.17866 | 3176 ft | 276 kts | 311° |
| 2026-04-17 15:01 | 7.09961 | 171.16334 | 3984 ft | 279 kts | 308° |
| 2026-04-17 15:01 | 7.11073 | 171.14711 | 4832 ft | 283 kts | 305° |
| 2026-04-17 15:01 | 7.12127 | 171.13020 | 5653 ft | 287 kts | 303° |
| 2026-04-17 15:02 | 7.13143 | 171.11269 | 6438 ft | 292 kts | 301° |
| 2026-04-17 15:02 | 7.14132 | 171.09467 | 7187 ft | 295 kts | 300° |
| 2026-04-17 15:02 | 7.15100 | 171.07631 | 7954 ft | 299 kts | 299° |
| 2026-04-17 15:02 | 7.16062 | 171.05759 | 8679 ft | 303 kts | 298° |
| 2026-04-17 15:03 | 7.17021 | 171.03856 | 9459 ft | 306 kts | 298° |
| 2026-04-17 15:03 | 7.17981 | 171.01929 | 10160 ft | 310 kts | 298° |
| 2026-04-17 15:03 | 7.18971 | 170.99927 | 10446 ft | 331 kts | 297° |
| 2026-04-17 15:03 | 7.20029 | 170.97778 | 10616 ft | 353 kts | 297° |
| 2026-04-17 15:04 | 7.21144 | 170.95504 | 10897 ft | 368 kts | 297° |
| 2026-04-17 15:04 | 7.22285 | 170.93167 | 11429 ft | 374 kts | 297° |
| 2026-04-17 15:04 | 7.23430 | 170.90819 | 12162 ft | 374 kts | 297° |
| 2026-04-17 15:04 | 7.24583 | 170.88452 | 12732 ft | 379 kts | 297° |
| 2026-04-17 15:05 | 7.25750 | 170.86055 | 13372 ft | 381 kts | 297° |
| 2026-04-17 15:05 | 7.26921 | 170.83653 | 13985 ft | 384 kts | 297° |
| 2026-04-17 15:05 | 7.28104 | 170.81224 | 14476 ft | 389 kts | 297° |
| 2026-04-17 15:05 | 7.29296 | 170.78775 | 15047 ft | 390 kts | 297° |
| 2026-04-17 15:06 | 7.30492 | 170.76318 | 15569 ft | 393 kts | 298° |
| 2026-04-17 15:06 | 7.31703 | 170.73832 | 16057 ft | 397 kts | 297° |
| 2026-04-17 15:06 | 7.32909 | 170.71355 | 16593 ft | 399 kts | 297° |
| 2026-04-17 15:06 | 7.34109 | 170.68891 | 17081 ft | 402 kts | 297° |
| 2026-04-17 15:07 | 7.35343 | 170.66354 | 17622 ft | 404 kts | 297° |
| 2026-04-17 15:07 | 7.36452 | 170.64074 | 18017 ft | 408 kts | 297° |
| 2026-04-17 15:07 | 7.37706 | 170.61498 | 18482 ft | 410 kts | 297° |
| 2026-04-17 15:07 | 7.38963 | 170.58914 | 18909 ft | 412 kts | 297° |
| 2026-04-17 15:08 | 7.40234 | 170.56300 | 19269 ft | 416 kts | 297° |
| 2026-04-17 15:08 | 7.41511 | 170.53672 | 19720 ft | 418 kts | 297° |
| 2026-04-17 15:08 | 7.42791 | 170.51037 | 20122 ft | 420 kts | 297° |
| 2026-04-17 15:08 | 7.44080 | 170.48385 | 20528 ft | 423 kts | 298° |
| 2026-04-17 15:09 | 7.45288 | 170.45889 | 20884 ft | 425 kts | 297° |
| 2026-04-17 15:09 | 7.46565 | 170.43229 | 21264 ft | 428 kts | 297° |
| 2026-04-17 15:09 | 7.47869 | 170.40517 | 21655 ft | 430 kts | 297° |
| 2026-04-17 15:09 | 7.49172 | 170.37793 | 22052 ft | 432 kts | 297° |
| 2026-04-17 15:10 | 7.50339 | 170.35352 | 22408 ft | 433 kts | 297° |
| 2026-04-17 15:10 | 7.51608 | 170.32702 | 22790 ft | 435 kts | 297° |
| 2026-04-17 15:10 | 7.52832 | 170.29908 | 23278 ft | 434 kts | 294° |
| 2026-04-17 15:11 | 7.55012 | 170.24235 | 23887 ft | 437 kts | 292° |
| 2026-04-17 15:11 | 7.56096 | 170.21338 | 23910 ft | 444 kts | 292° |
| 2026-04-17 15:11 | 7.57201 | 170.18411 | 23918 ft | 448 kts | 292° |
| 2026-04-17 15:11 | 7.58313 | 170.15498 | 23921 ft | 453 kts | 292° |
| 2026-04-17 15:12 | 7.59458 | 170.12530 | 23912 ft | 454 kts | 292° |
| 2026-04-17 15:12 | 7.60605 | 170.09578 | 23903 ft | 452 kts | 292° |
| 2026-04-17 15:12 | 7.61751 | 170.06637 | 23907 ft | 450 kts | 293° |
| 2026-04-17 15:12 | 7.62898 | 170.03702 | 23907 ft | 449 kts | 292° |
| 2026-04-17 15:13 | 7.64044 | 170.00772 | 23912 ft | 449 kts | 293° |
| 2026-04-17 15:13 | 7.65191 | 169.97837 | 23914 ft | 449 kts | 292° |
| 2026-04-17 15:13 | 7.66336 | 169.94909 | 23916 ft | 450 kts | 292° |
| 2026-04-17 15:13 | 7.67484 | 169.91969 | 23914 ft | 451 kts | 293° |
| 2026-04-17 15:14 | 7.68631 | 169.89029 | 23912 ft | 451 kts | 292° |
| 2026-04-17 15:14 | 7.69784 | 169.86075 | 23912 ft | 452 kts | 292° |
| 2026-04-17 15:14 | 7.70936 | 169.83123 | 23911 ft | 453 kts | 292° |
| 2026-04-17 15:14 | 7.71964 | 169.80488 | 23909 ft | 453 kts | 292° |
| 2026-04-17 15:15 | 7.73116 | 169.77532 | 23911 ft | 454 kts | 292° |
| 2026-04-17 15:15 | 7.74271 | 169.74568 | 23909 ft | 454 kts | 292° |
| 2026-04-17 15:15 | 7.75424 | 169.71609 | 23909 ft | 453 kts | 292° |
| 2026-04-17 15:15 | 7.76577 | 169.68651 | 23910 ft | 453 kts | 292° |
| 2026-04-17 15:16 | 7.77731 | 169.65690 | 23912 ft | 453 kts | 292° |
| 2026-04-17 15:16 | 7.78883 | 169.62732 | 23911 ft | 453 kts | 292° |
| 2026-04-17 15:16 | 7.80035 | 169.59775 | 23913 ft | 453 kts | 292° |
| 2026-04-17 15:16 | 7.81171 | 169.56856 | 23911 ft | 453 kts | 292° |
| 2026-04-17 15:17 | 7.82324 | 169.53892 | 23912 ft | 453 kts | 292° |
| 2026-04-17 15:17 | 7.83473 | 169.50940 | 23912 ft | 452 kts | 292° |
| 2026-04-17 15:17 | 7.84623 | 169.47982 | 23909 ft | 452 kts | 292° |
| 2026-04-17 15:17 | 7.85772 | 169.45027 | 23911 ft | 452 kts | 292° |
| 2026-04-17 15:18 | 7.86921 | 169.42075 | 23909 ft | 452 kts | 292° |
| 2026-04-17 15:18 | 7.88071 | 169.39115 | 23913 ft | 452 kts | 292° |
| 2026-04-17 15:18 | 7.89221 | 169.36158 | 23913 ft | 452 kts | 292° |
| 2026-04-17 15:18 | 7.90369 | 169.33204 | 23911 ft | 452 kts | 292° |
| 2026-04-17 15:19 | 7.91519 | 169.30242 | 23911 ft | 453 kts | 292° |
| 2026-04-17 15:19 | 7.92653 | 169.27322 | 23913 ft | 453 kts | 292° |
| 2026-04-17 15:19 | 7.93801 | 169.24366 | 23914 ft | 453 kts | 292° |
| 2026-04-17 15:19 | 7.94950 | 169.21405 | 23915 ft | 453 kts | 292° |
| 2026-04-17 15:20 | 7.96099 | 169.18444 | 23911 ft | 453 kts | 292° |
| 2026-04-17 15:20 | 7.97250 | 169.15480 | 23911 ft | 453 kts | 292° |
| 2026-04-17 15:20 | 7.98399 | 169.12517 | 23911 ft | 453 kts | 292° |
| 2026-04-17 15:20 | 7.99548 | 169.09554 | 23909 ft | 453 kts | 292° |
| 2026-04-17 15:21 | 8.00633 | 169.06756 | 23909 ft | 453 kts | 292° |
| 2026-04-17 15:21 | 8.01782 | 169.03792 | 23913 ft | 453 kts | 292° |
| 2026-04-17 15:21 | 8.02930 | 169.00829 | 23913 ft | 453 kts | 292° |
| 2026-04-17 15:21 | 8.04078 | 168.97866 | 23911 ft | 453 kts | 292° |
| 2026-04-17 15:22 | 8.05215 | 168.94930 | 23899 ft | 442 kts | 292° |
| 2026-04-17 15:22 | 8.06312 | 168.92094 | 23895 ft | 427 kts | 292° |
| 2026-04-17 15:22 | 8.07390 | 168.89308 | 23904 ft | 426 kts | 292° |
| 2026-04-17 15:22 | 8.08463 | 168.86538 | 23901 ft | 422 kts | 292° |
| 2026-04-17 15:23 | 8.09529 | 168.83784 | 23906 ft | 421 kts | 292° |
| 2026-04-17 15:23 | 8.10596 | 168.81028 | 23911 ft | 422 kts | 292° |
| 2026-04-17 15:23 | 8.11663 | 168.78270 | 23909 ft | 423 kts | 292° |
| 2026-04-17 15:23 | 8.12733 | 168.75504 | 23908 ft | 423 kts | 292° |
| 2026-04-17 15:24 | 8.13804 | 168.72735 | 23904 ft | 424 kts | 292° |
| 2026-04-17 15:24 | 8.14879 | 168.69953 | 23905 ft | 424 kts | 292° |
| 2026-04-17 15:24 | 8.15950 | 168.67184 | 23904 ft | 424 kts | 292° |
| 2026-04-17 15:24 | 8.16998 | 168.64469 | 23822 ft | 417 kts | 292° |
| 2026-04-17 15:25 | 8.18043 | 168.61762 | 23530 ft | 410 kts | 292° |
| 2026-04-17 15:25 | 8.19073 | 168.59095 | 22741 ft | 407 kts | 292° |
| 2026-04-17 15:25 | 8.20101 | 168.56433 | 21929 ft | 406 kts | 292° |
| 2026-04-17 15:25 | 8.21125 | 168.53781 | 21136 ft | 405 kts | 292° |
| 2026-04-17 15:26 | 8.22143 | 168.51143 | 20503 ft | 400 kts | 292° |
| 2026-04-17 15:26 | 8.23143 | 168.48551 | 19900 ft | 394 kts | 292° |
| 2026-04-17 15:26 | 8.24133 | 168.45984 | 19242 ft | 390 kts | 292° |
| 2026-04-17 15:26 | 8.25112 | 168.43444 | 18643 ft | 386 kts | 292° |
| 2026-04-17 15:27 | 8.26082 | 168.40927 | 18006 ft | 382 kts | 292° |
| 2026-04-17 15:27 | 8.27043 | 168.38435 | 17331 ft | 378 kts | 292° |
| 2026-04-17 15:27 | 8.27976 | 168.36014 | 16692 ft | 373 kts | 292° |
| 2026-04-17 15:27 | 8.28917 | 168.33575 | 16015 ft | 370 kts | 292° |
| 2026-04-17 15:28 | 8.29847 | 168.31161 | 15404 ft | 366 kts | 292° |
| 2026-04-17 15:28 | 8.30764 | 168.28780 | 14811 ft | 362 kts | 292° |
| 2026-04-17 15:28 | 8.31674 | 168.26420 | 14200 ft | 359 kts | 292° |
| 2026-04-17 15:28 | 8.32574 | 168.24083 | 13629 ft | 355 kts | 292° |
| 2026-04-17 15:29 | 8.33459 | 168.21783 | 13128 ft | 347 kts | 292° |
| 2026-04-17 15:29 | 8.34323 | 168.19538 | 12704 ft | 338 kts | 292° |
| 2026-04-17 15:29 | 8.35163 | 168.17353 | 12304 ft | 330 kts | 292° |
| 2026-04-17 15:29 | 8.35988 | 168.15210 | 11930 ft | 326 kts | 292° |
| 2026-04-17 15:30 | 8.36805 | 168.13087 | 11554 ft | 323 kts | 292° |
| 2026-04-17 15:30 | 8.37620 | 168.10970 | 11199 ft | 326 kts | 292° |
| 2026-04-17 15:30 | 8.38457 | 168.08794 | 10817 ft | 339 kts | 292° |
| 2026-04-17 15:30 | 8.39315 | 168.06566 | 10556 ft | 336 kts | 292° |
| 2026-04-17 15:31 | 8.40135 | 168.04430 | 10372 ft | 321 kts | 292° |
| 2026-04-17 15:31 | 8.40922 | 168.02379 | 10228 ft | 305 kts | 292° |
| 2026-04-17 15:31 | 8.41673 | 168.00424 | 10091 ft | 291 kts | 292° |
| 2026-04-17 15:31 | 8.42388 | 167.98561 | 9971 ft | 279 kts | 292° |
| 2026-04-17 15:32 | 8.43072 | 167.96780 | 9786 ft | 275 kts | 292° |
| 2026-04-17 15:32 | 8.43705 | 167.95134 | 9528 ft | 274 kts | 292° |
| 2026-04-17 15:32 | 8.44398 | 167.93332 | 9270 ft | 278 kts | 292° |
| 2026-04-17 15:32 | 8.45110 | 167.91481 | 9004 ft | 286 kts | 292° |
| 2026-04-17 15:33 | 8.45835 | 167.89592 | 8718 ft | 289 kts | 292° |
| 2026-04-17 15:33 | 8.46554 | 167.87719 | 8403 ft | 283 kts | 292° |
| 2026-04-17 15:33 | 8.47256 | 167.85890 | 8120 ft | 276 kts | 292° |
| 2026-04-17 15:33 | 8.47944 | 167.84096 | 7836 ft | 270 kts | 292° |
| 2026-04-17 15:34 | 8.48618 | 167.82337 | 7580 ft | 269 kts | 292° |
| 2026-04-17 15:34 | 8.49303 | 167.80553 | 7327 ft | 276 kts | 292° |
| 2026-04-17 15:34 | 8.50008 | 167.78718 | 7039 ft | 284 kts | 292° |
| 2026-04-17 15:34 | 8.50722 | 167.76855 | 6743 ft | 284 kts | 292° |
| 2026-04-17 15:35 | 8.51435 | 167.74995 | 6453 ft | 284 kts | 292° |
| 2026-04-17 15:35 | 8.52139 | 167.73158 | 6147 ft | 284 kts | 292° |
| 2026-04-17 15:35 | 8.52847 | 167.71309 | 5842 ft | 279 kts | 292° |
| 2026-04-17 15:35 | 8.53540 | 167.69500 | 5544 ft | 273 kts | 292° |
| 2026-04-17 15:36 | 8.54217 | 167.67732 | 5274 ft | 266 kts | 292° |
| 2026-04-17 15:36 | 8.54878 | 167.66007 | 5004 ft | 260 kts | 292° |
| 2026-04-17 15:36 | 8.55525 | 167.64318 | 4756 ft | 257 kts | 292° |
| 2026-04-17 15:36 | 8.56124 | 167.62756 | 4534 ft | 260 kts | 293° |
| 2026-04-17 15:37 | 8.56787 | 167.61025 | 4326 ft | 269 kts | 292° |
| 2026-04-17 15:37 | 8.57473 | 167.59236 | 4074 ft | 275 kts | 292° |
| 2026-04-17 15:37 | 8.58406 | 167.57590 | 3712 ft | 268 kts | 317° |
| 2026-04-17 15:37 | 8.59939 | 167.56559 | 3268 ft | 262 kts | 341° |
| 2026-04-17 15:38 | 8.61635 | 167.55959 | 2910 ft | 256 kts | 346° |
| 2026-04-17 15:38 | 8.63333 | 167.55474 | 2527 ft | 251 kts | 354° |
| 2026-04-17 15:38 | 8.65017 | 167.55601 | 2138 ft | 239 kts | 23° |
| 2026-04-17 15:38 | 8.66381 | 167.56477 | 1802 ft | 230 kts | 47° |
| 2026-04-17 15:39 | 8.67253 | 167.57765 | 1525 ft | 220 kts | 68° |
| 2026-04-17 15:39 | 8.67730 | 167.59177 | 1524 ft | 205 kts | 73° |
| 2026-04-17 15:39 | 8.68118 | 167.60505 | 1490 ft | 187 kts | 74° |
| 2026-04-17 15:39 | 8.68481 | 167.61707 | 1484 ft | 170 kts | 73° |
| 2026-04-17 15:40 | 8.68813 | 167.62788 | 1483 ft | 155 kts | 73° |
| 2026-04-17 15:40 | 8.69121 | 167.63787 | 1488 ft | 142 kts | 73° |
| 2026-04-17 15:40 | 8.69408 | 167.64716 | 1509 ft | 138 kts | 73° |
| 2026-04-17 15:40 | 8.69688 | 167.65624 | 1439 ft | 135 kts | 73° |
| 2026-04-17 15:41 | 8.69969 | 167.66537 | 1268 ft | 135 kts | 73° |
| 2026-04-17 15:41 | 8.70249 | 167.67442 | 1069 ft | 135 kts | 73° |
| 2026-04-17 15:41 | 8.70526 | 167.68340 | 923 ft | 133 kts | 73° |
| 2026-04-17 15:41 | 8.70799 | 167.69224 | 740 ft | 133 kts | 73° |
| 2026-04-17 15:42 | 8.71081 | 167.70136 | 544 ft | 139 kts | 72° |
| 2026-04-17 15:42 | 8.71368 | 167.71072 | 336 ft | 139 kts | 71° |
| 2026-04-17 15:42 | 8.71654 | 167.71987 | 132 ft | 134 kts | 71° |
| 2026-04-17 15:42 | 8.71906 | 167.72810 | -51 ft | 120 kts | 72° |
| 2026-04-17 15:43 | 8.72081 | 167.73383 | -39 ft | 30 kts | 68° |
| 2026-04-17 15:43 | 8.72176 | 167.73417 | -37 ft | 13 kts | 339° |
| 2026-04-17 15:43 | 8.72180 | 167.73416 | -50 ft | 0 kts | 348° |